createdAt,value
2018-02-20T00:01:29.873Z,70.00
2018-02-20T00:04:00.246Z,66.50
2018-02-20T00:06:33.444Z,72.00
2018-02-20T00:09:04.778Z,76.50
2018-02-20T00:11:35.302Z,72.50
2018-02-20T00:14:05.846Z,66.00
2018-02-20T00:16:38.740Z,72.50
2018-02-20T00:19:11.553Z,77.00
2018-02-20T00:24:24.393Z,69.00
2018-02-20T00:26:55.001Z,77.00
2018-02-20T00:29:25.215Z,67.00
2018-02-20T00:31:55.892Z,76.50
2018-02-20T00:34:26.671Z,70.25
2018-02-20T00:36:58.802Z,67.00
2018-02-20T00:39:31.093Z,72.50
2018-02-20T00:42:02.081Z,73.50
2018-02-20T00:44:32.428Z,60.00
2018-02-20T00:47:03.939Z,63.00
2018-02-20T00:49:38.669Z,71.75
2018-02-20T00:52:09.864Z,72.50
2018-02-20T00:54:40.102Z,74.00
2018-02-20T00:57:10.474Z,69.75
2018-02-20T00:59:42.011Z,72.00
2018-02-20T01:02:11.910Z,73.75
2018-02-20T01:04:42.911Z,67.50
2018-02-20T01:07:15.457Z,65.25
2018-02-20T01:09:46.396Z,66.00
2018-02-20T01:12:17.193Z,64.50
2018-02-20T01:14:48.240Z,61.50
2018-02-20T01:17:19.225Z,63.50
2018-02-20T01:19:49.975Z,61.00
2018-02-20T01:22:21.267Z,64.00
2018-02-20T01:24:52.007Z,62.25
2018-02-20T01:27:22.889Z,63.00
2018-02-20T01:29:54.187Z,62.00
2018-02-20T01:32:29.672Z,63.00
2018-02-20T01:35:03.539Z,69.25
2018-02-20T01:37:35.915Z,78.75
2018-02-20T01:40:09.262Z,65.25
2018-02-20T01:42:40.623Z,64.00
2018-02-20T01:45:19.087Z,66.50
2018-02-20T01:47:53.411Z,68.00
2018-02-20T01:50:26.186Z,62.75
2018-02-20T01:53:06.646Z,69.50
2018-02-20T01:55:39.223Z,74.50
2018-02-20T01:58:12.570Z,62.25
2018-02-20T02:00:53.491Z,65.00
2018-02-20T02:03:30.781Z,63.25
2018-02-20T02:06:06.958Z,72.50
2018-02-20T02:08:42.521Z,75.00
2018-02-20T02:11:18.468Z,73.00
2018-02-20T02:13:56.968Z,67.00
2018-02-20T02:16:34.596Z,55.75
2018-02-20T02:19:07.411Z,73.50
2018-02-20T02:24:31.581Z,55.50
2018-02-20T02:27:14.002Z,68.00
2018-02-20T02:29:49.893Z,64.75
2018-02-20T02:32:30.987Z,76.75
2018-02-20T02:35:06.305Z,71.00
2018-02-20T02:37:39.973Z,64.50
2018-02-20T02:40:14.423Z,73.00
2018-02-20T02:42:53.649Z,77.50
2018-02-20T02:45:31.640Z,78.50
2018-02-20T02:48:03.817Z,68.00
2018-02-20T02:50:39.594Z,75.00
2018-02-20T02:53:22.574Z,71.75
2018-02-20T02:55:57.580Z,70.00
2018-02-20T02:58:29.755Z,81.00
2018-02-20T03:01:00.620Z,66.00
2018-02-20T03:03:31.247Z,70.50
2018-02-20T03:06:01.613Z,69.50
2018-02-20T03:08:32.042Z,71.25
2018-02-20T03:11:02.992Z,81.25
2018-02-20T03:13:33.208Z,63.50
2018-02-20T03:16:05.009Z,67.50
2018-02-20T03:18:36.528Z,72.50
2018-02-20T03:21:07.907Z,66.50
2018-02-20T03:23:42.750Z,60.25
2018-02-20T03:26:22.931Z,64.00
2018-02-20T03:28:54.833Z,73.50
2018-02-20T03:31:26.507Z,66.00
2018-02-20T03:34:05.693Z,59.75
2018-02-20T03:36:38.403Z,64.00
2018-02-20T03:39:10.540Z,70.00
2018-02-20T03:41:45.431Z,63.50
2018-02-20T03:44:18.602Z,75.50
2018-02-20T03:46:49.619Z,85.75
2018-02-20T03:49:23.607Z,72.50
2018-02-20T03:52:03.183Z,73.25
2018-02-20T03:54:49.714Z,77.00
2018-02-20T03:57:24.874Z,80.00
2018-02-20T04:00:07.725Z,66.50
2018-02-20T04:02:45.426Z,75.00
2018-02-20T04:05:24.220Z,69.00
2018-02-20T04:07:58.022Z,65.50
2018-02-20T04:10:30.064Z,67.00
2018-02-20T04:13:03.208Z,69.50
2018-02-20T04:15:37.832Z,64.75
2018-02-20T04:18:16.018Z,70.00
2018-02-20T04:20:48.127Z,61.00
2018-02-20T04:23:22.771Z,71.00
2018-02-20T04:26:12.226Z,63.75
2018-02-20T04:28:48.231Z,65.00
2018-02-20T04:31:30.367Z,79.50
2018-02-20T04:34:12.386Z,71.00
2018-02-20T04:36:46.454Z,67.00
2018-02-20T04:39:23.488Z,61.50
2018-02-20T04:41:56.455Z,68.00
2018-02-20T04:44:31.795Z,72.00
2018-02-20T04:47:04.045Z,69.50
2018-02-20T04:49:41.244Z,63.25
2018-02-20T04:52:13.195Z,63.00
2018-02-20T04:54:52.737Z,72.50
2018-02-20T04:57:25.975Z,75.00
2018-02-20T05:00:04.511Z,78.50
2018-02-20T05:02:43.330Z,70.50
2018-02-20T05:05:19.209Z,68.50
2018-02-20T05:07:50.700Z,64.50
2018-02-20T05:10:21.029Z,73.25
2018-02-20T05:12:52.420Z,74.50
2018-02-20T05:15:23.197Z,80.50
2018-02-20T05:17:55.303Z,75.50
2018-02-20T05:20:25.715Z,74.50
2018-02-20T05:22:56.156Z,74.00
2018-02-20T05:25:35.250Z,77.50
2018-02-20T05:28:15.065Z,69.00
2018-02-20T05:30:52.639Z,73.50
2018-02-20T05:33:26.381Z,72.50
2018-02-20T05:35:57.928Z,78.75
2018-02-20T05:38:28.348Z,80.25
2018-02-20T05:40:58.484Z,72.00
2018-02-20T05:43:33.321Z,80.50
2018-02-20T05:46:11.095Z,80.75
2018-02-20T05:48:50.472Z,85.50
2018-02-20T05:51:25.683Z,85.00
2018-02-20T05:54:01.572Z,74.00
2018-02-20T05:56:34.950Z,73.00
2018-02-20T05:59:08.929Z,80.50
2018-02-20T06:01:41.664Z,82.50
2018-02-20T06:04:16.494Z,72.50
2018-02-20T06:06:48.812Z,86.00
2018-02-20T06:09:23.590Z,76.50
2018-02-20T06:11:57.984Z,86.00
2018-02-20T06:14:31.176Z,84.75
2018-02-20T06:17:07.723Z,84.25
2018-02-20T06:19:39.449Z,75.00
2018-02-20T06:22:14.118Z,87.75
2018-02-20T06:24:49.583Z,79.50
2018-02-20T06:27:25.406Z,81.00
2018-02-20T06:29:56.539Z,68.50
2018-02-20T06:32:27.611Z,81.00
2018-02-20T06:34:58.392Z,70.00
2018-02-20T06:37:29.923Z,80.50
2018-02-20T06:40:03.803Z,85.50
2018-02-20T06:42:35.679Z,83.75
2018-02-20T06:45:12.599Z,82.75
2018-02-20T06:50:27.742Z,76.00
2018-02-20T06:53:03.503Z,81.00
2018-02-20T06:55:44.795Z,71.00
2018-02-20T06:58:20.553Z,85.00
2018-02-20T07:01:03.391Z,80.50
2018-02-20T07:03:36.791Z,89.00
2018-02-20T07:06:23.813Z,88.25
2018-02-20T07:08:57.874Z,84.00
2018-02-20T07:11:39.879Z,86.25
2018-02-20T07:14:16.706Z,74.00
2018-02-20T07:16:56.511Z,78.00
2018-02-20T07:19:32.702Z,71.50
2018-02-20T07:22:08.988Z,74.25
2018-02-20T07:24:42.829Z,83.00
2018-02-20T07:27:13.851Z,77.00
2018-02-20T07:29:44.480Z,82.25
2018-02-20T07:32:23.326Z,80.00
2018-02-20T07:35:03.034Z,73.00
2018-02-20T07:37:36.222Z,87.75
2018-02-20T07:40:13.848Z,79.50
2018-02-20T07:42:50.561Z,80.50
2018-02-20T07:45:32.014Z,87.25
2018-02-20T07:48:07.323Z,87.25
2018-02-20T07:50:48.722Z,84.75
2018-02-20T07:53:20.682Z,89.75
2018-02-20T07:55:52.044Z,86.50
2018-02-20T07:58:22.785Z,92.00
2018-02-20T08:00:54.549Z,80.50
2018-02-20T08:03:31.848Z,80.50
2018-02-20T08:06:11.951Z,88.00
2018-02-20T08:08:43.762Z,80.25
2018-02-20T08:11:15.725Z,92.25
2018-02-20T08:13:46.110Z,87.00
2018-02-20T08:16:18.052Z,94.00
2018-02-20T08:18:48.954Z,80.25
2018-02-20T08:21:21.068Z,90.25
2018-02-20T08:23:52.369Z,91.75
2018-02-20T08:26:22.640Z,89.00
2018-02-20T08:28:52.989Z,97.00
2018-02-20T08:31:26.771Z,95.00
2018-02-20T08:34:01.894Z,104.00
2018-02-20T08:36:32.886Z,93.75
2018-02-20T08:39:05.326Z,85.25
2018-02-20T08:41:47.003Z,92.75
2018-02-20T08:44:23.474Z,98.75
2018-02-20T08:46:54.326Z,92.75
2018-02-20T08:49:27.002Z,81.75
2018-02-20T08:51:57.796Z,84.00
2018-02-20T08:54:29.437Z,86.50
2018-02-20T08:57:00.657Z,86.00
2018-02-20T08:59:31.248Z,86.50
2018-02-20T09:02:01.817Z,91.75
2018-02-20T09:04:33.172Z,81.75
2018-02-20T09:07:14.347Z,85.75
2018-02-20T09:10:04.442Z,80.00
2018-02-20T09:12:39.888Z,84.50
2018-02-20T09:15:17.028Z,80.50
2018-02-20T09:18:01.675Z,76.00
2018-02-20T09:20:36.860Z,79.50
2018-02-20T09:23:07.731Z,82.75
2018-02-20T09:25:37.981Z,78.00
2018-02-20T09:28:09.131Z,82.25
2018-02-20T09:30:40.504Z,77.25
2018-02-20T09:33:11.391Z,75.00
2018-02-20T09:35:42.838Z,71.25
2018-02-20T09:38:13.260Z,83.25
2018-02-20T09:40:44.261Z,78.25
2018-02-20T09:46:01.655Z,76.25
2018-02-20T09:48:32.196Z,72.50
2018-02-20T09:53:36.178Z,75.75
2018-02-20T09:56:07.157Z,75.50
2018-02-20T09:58:38.134Z,76.75
2018-02-20T10:01:13.243Z,77.50
2018-02-20T10:03:47.778Z,79.75
2018-02-20T10:06:20.406Z,78.50
2018-02-20T10:08:52.320Z,76.75
2018-02-20T10:11:22.541Z,78.50
2018-02-20T10:13:58.056Z,76.50
2018-02-20T10:16:32.456Z,67.25
2018-02-20T10:19:04.981Z,101.50
2018-02-20T10:21:40.622Z,74.75
2018-02-20T10:24:15.941Z,78.00
2018-02-20T10:26:51.621Z,72.25
2018-02-20T10:29:27.707Z,70.25
2018-02-20T10:32:00.225Z,75.75
2018-02-20T10:34:30.965Z,69.75
2018-02-20T10:37:01.575Z,70.25
2018-02-20T10:39:34.437Z,66.50
2018-02-20T10:42:11.282Z,75.75
2018-02-20T10:44:46.024Z,80.50
2018-02-20T10:47:24.542Z,71.25
2018-02-20T10:49:59.238Z,70.00
2018-02-20T10:52:37.956Z,70.00
2018-02-20T10:55:18.267Z,70.00
2018-02-20T10:57:55.859Z,71.00
2018-02-20T11:00:31.089Z,68.25
2018-02-20T11:03:09.626Z,66.50
2018-02-20T11:05:42.302Z,71.50
2018-02-20T11:08:13.842Z,70.00
2018-02-20T11:10:45.761Z,67.75
2018-02-20T11:16:57.551Z,67.75
2018-02-20T11:19:35.799Z,66.00
2018-02-20T11:22:09.767Z,65.50
2018-02-20T11:24:44.519Z,68.25
2018-02-20T11:27:18.180Z,68.50
2018-02-20T11:29:48.899Z,70.50
2018-02-20T11:32:21.522Z,71.25
2018-02-20T11:34:59.687Z,71.75
2018-02-20T11:37:36.754Z,69.50
2018-02-20T11:40:09.315Z,71.75
2018-02-20T11:42:40.703Z,71.25
2018-02-20T11:45:16.132Z,70.75
2018-02-20T11:47:48.828Z,71.50
2018-02-20T11:50:21.123Z,69.25
2018-02-20T11:52:55.285Z,70.75
2018-02-20T11:55:33.811Z,72.75
2018-02-20T11:58:07.828Z,78.50
2018-02-20T12:00:39.544Z,74.75
2018-02-20T12:03:19.161Z,74.25
2018-02-20T12:06:00.315Z,74.00
2018-02-20T12:08:39.623Z,76.50
2018-02-20T12:11:30.134Z,78.50
2018-02-20T12:14:08.858Z,79.00
2018-02-20T12:16:42.729Z,76.75
2018-02-20T12:19:15.712Z,73.25
2018-02-20T12:21:49.268Z,76.50
2018-02-20T12:24:22.387Z,77.50
2018-02-20T12:27:00.828Z,79.00
2018-02-20T12:29:40.666Z,74.00
2018-02-20T12:32:16.997Z,71.00
2018-02-20T12:34:50.815Z,67.75
2018-02-20T12:37:21.752Z,74.25
2018-02-20T12:39:56.080Z,72.25
2018-02-20T12:42:30.737Z,69.50
2018-02-20T12:45:22.375Z,74.25
2018-02-20T12:47:59.210Z,71.00
2018-02-20T12:50:32.994Z,69.50
2018-02-20T12:53:05.914Z,74.75
2018-02-20T12:55:37.921Z,77.25
2018-02-20T12:58:18.808Z,71.50
2018-02-20T13:00:53.903Z,77.25
2018-02-20T13:03:25.465Z,74.25
2018-02-20T13:06:07.993Z,75.00
2018-02-20T13:08:41.787Z,79.50
2018-02-20T13:13:59.799Z,79.50
2018-02-20T13:16:37.250Z,79.50
2018-02-20T13:19:09.988Z,84.75
2018-02-20T13:21:41.219Z,79.00
2018-02-20T13:24:18.469Z,78.00
2018-02-20T13:27:36.638Z,73.75
2018-02-20T13:38:57.228Z,72.75
2018-02-20T13:41:35.765Z,59.50
2018-02-20T13:44:08.421Z,66.00
2018-02-20T13:46:42.999Z,69.25
2018-02-20T13:49:16.852Z,54.00
2018-02-20T13:51:52.287Z,57.25
2018-02-20T13:54:36.649Z,53.00
2018-02-20T13:57:11.713Z,53.75
2018-02-20T13:59:46.131Z,56.25
2018-02-20T14:02:25.267Z,58.00
2018-02-20T14:05:01.736Z,56.25
2018-02-20T14:07:33.648Z,58.75
2018-02-20T14:10:09.385Z,63.50
2018-02-20T14:12:45.993Z,58.25
2018-02-20T14:15:22.572Z,60.00
2018-02-20T14:18:02.502Z,55.50
2018-02-20T14:23:40.414Z,64.00
2018-02-20T14:26:13.634Z,58.75
2018-02-20T14:28:45.047Z,62.50
2018-02-20T14:31:17.458Z,67.00
2018-02-20T14:33:54.387Z,50.00
2018-02-20T14:36:25.966Z,50.75
2018-02-20T14:38:57.736Z,56.50
2018-02-20T14:41:28.643Z,57.00
2018-02-20T14:44:01.018Z,56.75
2018-02-20T14:46:31.832Z,56.50
2018-02-20T14:49:04.398Z,54.50
2018-02-20T14:51:34.826Z,62.00
2018-02-20T14:56:50.234Z,71.25
2018-02-20T14:59:25.632Z,52.75
2018-02-20T15:02:05.260Z,55.00
2018-02-20T15:04:44.581Z,56.00
2018-02-20T15:07:24.916Z,56.00
2018-02-20T15:09:57.963Z,54.75
2018-02-20T15:12:39.020Z,55.00
2018-02-20T15:15:20.979Z,57.75
2018-02-20T15:17:53.573Z,55.25
2018-02-20T15:20:29.577Z,60.75
2018-02-20T15:23:05.180Z,58.00
2018-02-20T15:25:37.764Z,58.25
2018-02-20T15:28:13.239Z,62.00
2018-02-20T15:30:49.676Z,72.25
2018-02-20T15:33:26.775Z,56.00
2018-02-20T15:36:01.786Z,60.25
2018-02-20T15:38:35.276Z,63.50
2018-02-20T15:41:07.804Z,73.00
2018-02-20T15:43:42.712Z,65.25
2018-02-20T15:46:19.387Z,60.00
2018-02-20T15:51:39.397Z,66.25
2018-02-20T15:54:17.465Z,64.25
2018-02-20T15:56:53.970Z,72.50
2018-02-20T15:59:29.633Z,59.25
2018-02-20T16:02:06.864Z,59.00
2018-02-20T16:04:46.534Z,75.50
2018-02-20T16:07:18.786Z,59.50
2018-02-20T16:09:54.128Z,66.00
2018-02-20T16:15:19.966Z,59.25
2018-02-20T16:18:03.513Z,61.75
2018-02-20T16:20:45.049Z,66.50
2018-02-20T16:23:34.945Z,68.00
2018-02-20T16:26:13.550Z,71.25
2018-02-20T16:28:55.776Z,71.50
2018-02-20T16:31:34.771Z,70.50
2018-02-20T17:16:38.877Z,73.50
2018-02-20T17:19:16.138Z,71.25
2018-02-20T17:21:52.771Z,69.50
2018-02-20T17:24:42.623Z,64.50
2018-02-20T17:27:33.372Z,63.50
2018-02-20T17:30:14.188Z,74.75
2018-02-20T17:32:52.789Z,75.00
2018-02-20T17:35:28.463Z,70.75
2018-02-20T17:38:02.594Z,75.50
2018-02-20T17:40:33.793Z,72.00
2018-02-20T17:43:11.527Z,67.50
2018-02-20T17:45:45.789Z,68.75
2018-02-20T17:48:25.135Z,77.75
2018-02-20T17:51:01.108Z,79.00
2018-02-20T17:53:32.061Z,76.00
2018-02-20T17:56:04.829Z,72.25
2018-02-20T17:58:39.395Z,74.50
2018-02-20T18:01:13.449Z,63.75
2018-02-20T18:03:47.361Z,79.00
2018-02-20T18:06:29.094Z,67.75
2018-02-20T18:09:07.648Z,73.50
2018-02-20T18:11:44.824Z,72.50
2018-02-20T18:14:17.275Z,75.00
2018-02-20T18:16:59.558Z,70.00
2018-02-20T18:19:39.811Z,78.00
2018-02-20T18:22:31.393Z,77.00
2018-02-20T18:25:04.490Z,74.75
2018-02-20T18:27:42.413Z,73.75
2018-02-20T18:30:18.443Z,79.00
2018-02-20T18:32:49.514Z,70.50
2018-02-20T18:35:21.133Z,73.00
2018-02-20T18:37:52.061Z,75.00
2018-02-20T18:40:27.730Z,74.00
2018-02-20T18:42:59.200Z,75.00
2018-02-20T18:45:31.132Z,81.50
2018-02-20T18:48:03.242Z,72.50
2018-02-20T18:50:35.331Z,82.00
2018-02-20T18:53:13.829Z,80.50
2018-02-20T18:55:55.364Z,81.75
2018-02-20T18:58:26.406Z,72.75
2018-02-20T19:00:58.349Z,65.00
2018-02-20T19:03:29.538Z,86.25
2018-02-20T19:06:01.284Z,82.50
2018-02-20T19:08:32.088Z,73.75
2018-02-20T19:11:06.432Z,77.25
2018-02-20T19:13:39.593Z,73.00
2018-02-20T19:16:11.120Z,81.25
2018-02-20T19:18:43.806Z,75.75
2018-02-20T19:21:15.260Z,75.00
2018-02-20T19:23:45.777Z,79.25
2018-02-20T19:26:16.390Z,80.25
2018-02-20T19:28:48.093Z,87.00
2018-02-20T19:31:19.822Z,76.50
2018-02-20T19:33:51.209Z,83.25
2018-02-20T19:36:21.921Z,78.75
2018-02-20T19:38:52.364Z,78.50
2018-02-20T19:41:23.121Z,85.50
2018-02-20T19:44:03.931Z,82.25
2018-02-20T19:46:35.610Z,82.50
2018-02-20T19:49:06.772Z,81.50
2018-02-20T19:51:38.482Z,85.50
2018-02-20T19:54:09.830Z,73.75
2018-02-20T19:56:41.277Z,89.50
2018-02-20T19:59:11.956Z,81.25
2018-02-20T20:01:43.126Z,86.50
2018-02-20T20:04:14.485Z,88.75
2018-02-20T20:06:45.371Z,92.00
2018-02-20T20:09:16.329Z,83.25
2018-02-20T20:11:46.990Z,84.75
2018-02-20T20:14:17.771Z,87.50
2018-02-20T20:16:51.398Z,84.25
2018-02-20T20:19:22.394Z,93.25
2018-02-20T20:21:53.497Z,88.25
2018-02-20T20:24:25.312Z,86.25
2018-02-20T20:26:56.338Z,87.50
2018-02-20T20:29:31.745Z,90.00
2018-02-20T20:32:03.435Z,79.00
2018-02-20T20:34:33.920Z,90.50
2018-02-20T20:37:06.274Z,79.00
2018-02-20T20:39:36.692Z,92.75
2018-02-20T20:42:08.929Z,88.00
2018-02-20T20:44:40.138Z,82.25
2018-02-20T20:47:11.100Z,89.75
2018-02-20T20:49:43.569Z,96.50
2018-02-20T20:52:14.356Z,83.25
2018-02-20T20:54:45.096Z,84.50
2018-02-20T20:57:15.586Z,89.25
2018-02-20T20:59:47.934Z,89.75
2018-02-20T21:02:19.144Z,84.50
2018-02-20T21:04:50.525Z,83.25
2018-02-20T21:07:23.013Z,87.25
2018-02-20T21:09:54.473Z,91.00
2018-02-20T21:12:28.974Z,89.75
2018-02-20T21:15:01.167Z,86.50
2018-02-20T21:17:33.180Z,91.75
2018-02-20T21:20:03.911Z,92.50
2018-02-20T21:22:39.379Z,91.50
2018-02-20T21:25:10.134Z,92.25
2018-02-20T21:27:41.292Z,92.00
2018-02-20T21:30:22.556Z,98.25
2018-02-20T21:32:56.264Z,93.75
2018-02-20T21:35:27.609Z,99.25
2018-02-20T21:37:58.655Z,90.00
2018-02-20T21:40:30.307Z,99.25
2018-02-20T21:43:00.739Z,100.25
2018-02-20T21:45:31.722Z,92.50
2018-02-20T21:48:03.633Z,89.00
2018-02-20T21:50:34.902Z,91.25
2018-02-20T21:53:05.981Z,97.25
2018-02-20T21:55:36.634Z,95.50
2018-02-20T21:58:06.993Z,91.50
2018-02-20T22:00:38.069Z,100.50
2018-02-20T22:03:08.385Z,92.25
2018-02-20T22:05:38.859Z,102.00
2018-02-20T22:08:09.247Z,95.75
2018-02-20T22:10:39.534Z,96.25
2018-02-20T22:13:10.124Z,93.75
2018-02-20T22:15:40.879Z,91.75
2018-02-20T22:18:11.974Z,97.50
2018-02-20T22:20:43.216Z,93.50
2018-02-20T22:23:14.382Z,98.50
2018-02-20T22:25:45.431Z,98.00
2018-02-20T22:28:16.259Z,92.00
2018-02-20T22:30:48.633Z,94.25
2018-02-20T22:33:19.018Z,95.50
2018-02-20T22:35:49.280Z,99.75
2018-02-20T22:38:19.894Z,101.25
2018-02-20T22:40:50.632Z,94.75
2018-02-20T22:43:22.167Z,92.50
2018-02-20T22:45:53.158Z,96.00
2018-02-20T22:48:25.930Z,98.50
2018-02-20T22:50:56.766Z,103.50
2018-02-20T22:53:28.354Z,103.00
2018-02-20T22:55:59.886Z,99.50
2018-02-20T22:58:30.179Z,99.00
2018-02-20T23:01:02.533Z,95.50
2018-02-20T23:03:33.018Z,98.75
2018-02-20T23:06:04.175Z,97.25
2018-02-20T23:08:34.572Z,101.75
2018-02-20T23:11:04.807Z,93.50
2018-02-20T23:13:36.101Z,97.50
2018-02-20T23:16:06.409Z,100.25
2018-02-20T23:18:36.759Z,96.00
2018-02-20T23:21:09.913Z,96.00
2018-02-20T23:23:40.310Z,100.00
2018-02-20T23:26:10.780Z,104.00
2018-02-20T23:28:45.059Z,101.75
2018-02-20T23:31:15.843Z,101.25
2018-02-20T23:33:46.159Z,98.50
2018-02-20T23:36:16.571Z,96.50
2018-02-20T23:40:03.522Z,109.75
2018-02-20T23:42:34.535Z,98.50
2018-02-20T23:45:18.437Z,104.25
2018-02-20T23:52:51.118Z,98.50
2018-02-20T23:55:24.074Z,89.00
2018-02-20T23:58:07.001Z,102.00
